Time;durP1;ratioP1;P1;durP2;ratioP2;P2;SDS_P1;SDS_P2;PMS_P1;PMS_P2;Temp;Humidity;BMP_temperature;BMP_pressure;BME280_temperature;BME280_humidity;BME280_pressure;Samples;Min_cycle;Max_cycle;Signal;HPM_P1;HPM_P2
2022/09/27 00:01:13;;;;;;;4.05;2.08;;;9.50;99.90;;;;;;4920250;28;20092;-56
2022/09/27 00:03:41;;;;;;;4.32;2.85;;;9.50;99.90;;;;;;4924993;28;20039;-55
2022/09/27 00:06:13;;;;;;;3.85;2.60;;;9.50;99.90;;;;;;4927579;28;20043;-55
2022/09/27 00:08:41;;;;;;;3.50;2.20;;;9.40;99.90;;;;;;4920658;28;20560;-55
2022/09/27 00:11:19;;;;;;;3.42;2.42;;;9.40;99.90;;;;;;4926859;28;20129;-56
2022/09/27 00:13:46;;;;;;;2.90;2.47;;;9.40;99.90;;;;;;4922618;28;20550;-55
2022/09/27 00:16:13;;;;;;;3.00;2.28;;;9.40;99.90;;;;;;4925168;28;20054;-56
2022/09/27 00:18:40;;;;;;;2.97;2.20;;;9.40;99.90;;;;;;4939271;28;20046;-56
2022/09/27 00:21:07;;;;;;;;;;;9.40;99.90;;;;;;4926065;28;20039;-56
2022/09/27 00:23:35;;;;;;;2.50;2.30;;;9.40;99.90;;;;;;4923019;28;19933;-56
2022/09/27 00:26:03;;;;;;;3.20;2.90;;;9.40;99.90;;;;;;4924364;28;20591;-55
2022/09/27 00:28:30;;;;;;;3.22;2.92;;;9.40;99.90;;;;;;4923380;28;20058;-55
2022/09/27 00:30:58;;;;;;;4.00;2.75;;;9.40;99.90;;;;;;4926493;28;20039;-56
2022/09/27 00:33:26;;;;;;;3.97;2.65;;;9.40;99.90;;;;;;4940123;28;20407;-55
2022/09/27 00:35:52;;;;;;;3.28;2.72;;;9.30;99.90;;;;;;4925847;28;20378;-55
2022/09/27 00:38:19;;;;;;;;;;;9.30;99.90;;;;;;4918536;28;20055;-56
2022/09/27 00:40:46;;;;;;;4.13;2.85;;;9.30;99.90;;;;;;4926803;28;20207;-56
2022/09/27 00:43:20;;;;;;;5.85;3.03;;;9.30;99.90;;;;;;4926385;28;20149;-55
2022/09/27 00:45:51;;;;;;;8.73;2.78;;;9.30;99.90;;;;;;4913869;28;20057;-55
2022/09/27 00:48:26;;;;;;;3.33;2.60;;;9.30;99.90;;;;;;4917703;28;20042;-55
2022/09/27 00:50:59;;;;;;;3.88;2.85;;;9.30;99.90;;;;;;4937885;28;20201;-55
2022/09/27 00:53:40;;;;;;;3.45;2.42;;;9.30;99.90;;;;;;4926781;28;20570;-56
2022/09/27 00:56:11;;;;;;;4.07;2.75;;;9.20;99.90;;;;;;4940659;28;20156;-55
2022/09/27 00:58:44;;;;;;;6.55;3.30;;;9.20;99.90;;;;;;4925653;28;20042;-56
2022/09/27 01:01:12;;;;;;;3.80;2.85;;;9.20;99.90;;;;;;4926060;28;20138;-54
2022/09/27 01:03:44;;;;;;;3.88;2.97;;;9.20;99.90;;;;;;4920480;28;20042;-54
2022/09/27 01:06:12;;;;;;;3.20;2.90;;;9.10;99.90;;;;;;4925429;28;20531;-55
2022/09/27 01:08:39;;;;;;;5.40;2.70;;;9.10;99.90;;;;;;4924216;28;20051;-56
2022/09/27 01:11:35;;;;;;;4.28;2.60;;;9.10;99.90;;;;;;4937125;28;20057;-55
2022/09/27 01:14:27;;;;;;;4.43;3.13;;;9.10;99.90;;;;;;4882671;28;20876;-53
2022/09/27 01:17:26;;;;;;;5.25;3.33;;;9.10;99.90;;;;;;4896459;28;20197;-56
2022/09/27 01:20:08;;;;;;;3.00;2.70;;;9.10;99.90;;;;;;4925826;28;20488;-55
2022/09/27 01:22:54;;;;;;;7.93;3.28;;;9.10;99.90;;;;;;4923677;28;20061;-55
2022/09/27 01:25:30;;;;;;;7.93;3.47;;;9.10;99.90;;;;;;4940190;28;20050;-55
2022/09/27 01:28:15;;;;;;;3.97;3.13;;;9.10;99.90;;;;;;4939550;28;20379;-55
2022/09/27 01:30:48;;;;;;;8.70;3.47;;;9.00;99.90;;;;;;4924944;28;20061;-55
2022/09/27 01:33:53;;;;;;;6.07;3.47;;;9.00;99.90;;;;;;4923815;28;20207;-56
2022/09/27 01:36:29;;;;;;;5.82;3.58;;;9.00;99.90;;;;;;4902510;28;20132;-56
2022/09/27 01:39:06;;;;;;;8.10;3.55;;;9.00;99.90;;;;;;4934653;28;20061;-55
2022/09/27 01:42:09;;;;;;;5.03;3.15;;;9.00;99.90;;;;;;4922519;28;20864;-55
2022/09/27 01:44:49;;;;;;;10.82;3.63;;;9.00;99.90;;;;;;4939244;28;20575;-54
2022/09/27 01:47:31;;;;;;;4.15;3.13;;;9.00;99.90;;;;;;4917291;28;20049;-55
2022/09/27 01:50:36;;;;;;;6.13;3.40;;;9.00;99.90;;;;;;4937935;28;20124;-55
2022/09/27 01:53:17;;;;;;;5.85;3.65;;;8.90;99.90;;;;;;4923526;28;20346;-55
2022/09/27 01:56:08;;;;;;;4.82;2.83;;;9.00;99.90;;;;;;4922363;28;20124;-55
2022/09/27 01:58:55;;;;;;;4.93;2.72;;;9.00;99.90;;;;;;4915926;28;20815;-55
2022/09/27 02:01:25;;;;;;;4.63;2.95;;;9.00;99.90;;;;;;4922118;28;20223;-55
2022/09/27 02:03:56;;;;;;;3.70;3.08;;;8.90;99.90;;;;;;4938433;28;20248;-55
2022/09/27 02:06:49;;;;;;;4.22;3.22;;;9.00;99.90;;;;;;4921145;28;20563;-53
2022/09/27 02:09:34;;;;;;;5.20;2.83;;;8.90;99.90;;;;;;4921369;28;20039;-56
2022/09/27 02:12:22;;;;;;;3.90;3.03;;;8.90;99.90;;;;;;4925160;28;20156;-54
2022/09/27 02:14:54;;;;;;;3.58;3.00;;;8.90;99.90;;;;;;4920787;28;20057;-54
2022/09/27 02:17:29;;;;;;;3.67;2.80;;;8.90;99.90;;;;;;4902635;28;20211;-54
2022/09/27 02:20:16;;;;;;;4.10;2.80;;;8.90;99.90;;;;;;4922898;28;20053;-54
2022/09/27 02:23:32;;;;;;;3.13;2.38;;;8.90;99.90;;;;;;4915596;28;20275;-54
2022/09/27 02:26:20;;;;;;;3.25;2.30;;;8.90;99.90;;;;;;4918259;28;20072;-54
2022/09/27 02:28:51;;;;;;;3.25;2.95;;;8.90;99.90;;;;;;4918568;28;20209;-54
2022/09/27 02:31:25;;;;;;;3.65;2.85;;;8.90;99.90;;;;;;4927691;28;20049;-53
2022/09/27 02:34:10;;;;;;;2.92;2.60;;;8.90;99.90;;;;;;4916921;28;20707;-55
2022/09/27 02:36:37;;;;;;;3.40;2.40;;;8.90;99.90;;;;;;4914481;28;20062;-55
2022/09/27 02:39:05;;;;;;;3.33;3.03;;;8.90;99.90;;;;;;4938628;28;20137;-54
2022/09/27 02:41:33;;;;;;;3.95;2.20;;;8.90;99.90;;;;;;4921670;28;20214;-54
2022/09/27 02:44:04;;;;;;;2.70;2.50;;;8.90;99.90;;;;;;4923442;28;20520;-54
2022/09/27 02:46:51;;;;;;;3.08;1.80;;;8.90;99.90;;;;;;4921688;28;20203;-53
2022/09/27 02:49:49;;;;;;;2.10;1.90;;;8.90;99.90;;;;;;4908136;28;20043;-55
2022/09/27 02:53:06;;;;;;;2.08;1.70;;;9.00;99.90;;;;;;4922269;28;20046;-55
2022/09/27 02:55:53;;;;;;;1.77;1.55;;;9.00;99.90;;;;;;4924558;28;20422;-54
2022/09/27 02:59:11;;;;;;;3.78;1.80;;;9.00;99.90;;;;;;4923663;28;20093;-54
2022/09/27 03:02:18;;;;;;;1.92;1.67;;;9.00;99.90;;;;;;4923706;28;20038;-54
2022/09/27 03:05:01;;;;;;;4.80;1.88;;;9.10;99.90;;;;;;4912535;28;20035;-54
2022/09/27 03:07:29;;;;;;;1.58;1.10;;;9.10;99.90;;;;;;4920442;28;20828;-53
2022/09/27 03:09:56;;;;;;;4.20;1.55;;;9.20;99.90;;;;;;4922028;28;20046;-55
2022/09/27 03:12:26;;;;;;;1.30;1.20;;;9.20;99.90;;;;;;4900547;28;20140;-54
2022/09/27 03:14:56;;;;;;;1.17;0.90;;;9.10;99.90;;;;;;4923255;28;20069;-53
2022/09/27 03:17:43;;;;;;;1.08;1.02;;;9.10;99.90;;;;;;4919234;28;20046;-54
2022/09/27 03:20:25;;;;;;;0.75;0.65;;;8.90;99.90;;;;;;4925091;28;20053;-53
2022/09/27 03:23:03;;;;;;;0.90;0.88;;;8.80;99.90;;;;;;4922619;28;20294;-54
2022/09/27 03:25:29;;;;;;;;;;;8.80;99.90;;;;;;4922321;28;20914;-54
2022/09/27 03:27:56;;;;;;;2.70;1.60;;;8.70;99.90;;;;;;4922314;28;20000;-52
2022/09/27 03:30:24;;;;;;;0.98;0.82;;;8.60;99.90;;;;;;4907752;28;20846;-53
2022/09/27 03:32:51;;;;;;;1.60;1.15;;;8.50;99.90;;;;;;4923864;28;20189;-53
2022/09/27 03:35:37;;;;;;;0.60;0.60;;;8.50;99.90;;;;;;4921007;28;20105;-53
2022/09/27 03:38:05;;;;;;;0.40;0.40;;;8.40;99.90;;;;;;4925321;28;20319;-53
2022/09/27 03:40:33;;;;;;;0.68;0.68;;;8.40;99.90;;;;;;4921471;28;20038;-54
2022/09/27 03:43:00;;;;;;;0.50;0.50;;;8.30;99.90;;;;;;4922489;28;20335;-54
2022/09/27 03:45:28;;;;;;;0.73;0.50;;;8.30;99.90;;;;;;4923149;28;20342;-54
2022/09/27 03:47:59;;;;;;;2.15;0.68;;;8.30;99.90;;;;;;4913494;28;20042;-54
2022/09/27 03:50:26;;;;;;;1.23;0.70;;;8.20;99.90;;;;;;4921470;28;20042;-53
2022/09/27 03:52:53;;;;;;;1.00;0.40;;;8.20;99.90;;;;;;4922129;28;20046;-52
2022/09/27 03:55:21;;;;;;;2.08;0.50;;;8.20;99.90;;;;;;4918706;28;20042;-54
2022/09/27 03:57:48;;;;;;;3.08;0.90;;;8.10;99.90;;;;;;4923981;28;20200;-53
2022/09/27 04:00:17;;;;;;;3.45;0.50;;;8.10;99.90;;;;;;4920954;28;20051;-54
2022/09/27 04:02:44;;;;;;;1.65;0.50;;;8.10;99.90;;;;;;4924606;28;20046;-53
2022/09/27 04:05:27;;;;;;;2.92;0.68;;;8.10;99.90;;;;;;4922930;28;20950;-54
2022/09/27 04:08:14;;;;;;;1.38;0.75;;;8.10;99.90;;;;;;4916742;28;20050;-53
2022/09/27 04:10:41;;;;;;;;;;;8.10;99.90;;;;;;4921496;28;20126;-55
2022/09/27 04:13:09;;;;;;;0.70;0.63;;;8.10;99.90;;;;;;4921475;28;20514;-54
2022/09/27 04:15:42;;;;;;;0.57;0.55;;;8.10;99.90;;;;;;4921600;28;20219;-53
2022/09/27 04:18:29;;;;;;;3.10;0.67;;;8.10;99.90;;;;;;4920692;28;20900;-54
2022/09/27 04:21:16;;;;;;;2.72;0.60;;;8.10;99.90;;;;;;4914593;28;20519;-54
2022/09/27 04:23:49;;;;;;;1.38;0.70;;;8.10;99.90;;;;;;4912983;28;20605;-53
2022/09/27 04:26:19;;;;;;;1.13;0.70;;;8.10;99.90;;;;;;4921172;28;20105;-54
2022/09/27 04:29:00;;;;;;;1.33;0.73;;;8.10;99.90;;;;;;4943168;28;20606;-53
2022/09/27 04:31:28;;;;;;;4.32;1.00;;;8.10;99.90;;;;;;4922181;28;20391;-54
2022/09/27 04:36:25;;;;;;;2.50;0.80;;;8.10;99.90;;;;;;4918609;28;20247;-54
2022/09/27 04:37:13;;;;;;;3.55;1.27;;;8.10;99.90;;;;;;4917005;28;20046;-55
2022/09/27 04:39:44;;;;;;;2.65;0.90;;;8.10;99.90;;;;;;4917856;28;20133;-55
2022/09/27 04:42:11;;;;;;;3.40;1.10;;;8.10;99.90;;;;;;4922868;28;20046;-55
2022/09/27 04:44:38;;;;;;;3.67;0.90;;;8.20;99.90;;;;;;4919397;28;20081;-55
2022/09/27 04:47:05;;;;;;;;;;;8.20;99.90;;;;;;4939812;28;20259;-55
2022/09/27 04:49:34;;;;;;;2.83;1.20;;;8.10;99.90;;;;;;4926789;28;20064;-54
2022/09/27 04:52:01;;;;;;;1.20;0.80;;;8.10;99.90;;;;;;4928104;28;20286;-53
2022/09/27 04:54:29;;;;;;;2.72;0.98;;;8.10;99.90;;;;;;4925417;28;20148;-54
2022/09/27 04:57:07;;;;;;;2.33;1.05;;;8.10;99.90;;;;;;4940957;28;20054;-53
2022/09/27 04:59:34;;;;;;;2.47;0.93;;;8.10;99.90;;;;;;4925211;28;20165;-54
2022/09/27 05:02:01;;;;;;;3.95;1.10;;;8.10;99.90;;;;;;4926066;28;20125;-53
2022/09/27 05:04:40;;;;;;;5.45;1.60;;;8.10;99.90;;;;;;4921862;28;20208;-53
2022/09/27 05:07:08;;;;;;;6.13;1.23;;;8.10;99.90;;;;;;4925517;28;20409;-54
2022/09/27 05:09:41;;;;;;;3.20;1.10;;;8.10;99.90;;;;;;4925776;28;20850;-53
2022/09/27 05:12:08;;;;;;;2.10;1.00;;;8.10;99.90;;;;;;4920830;28;20169;-54
2022/09/27 05:14:54;;;;;;;4.05;1.00;;;8.10;99.90;;;;;;4920835;28;20599;-53
2022/09/27 05:17:51;;;;;;;1.42;1.25;;;8.10;99.90;;;;;;4867494;28;20577;-53
2022/09/27 05:20:38;;;;;;;6.38;3.90;;;8.10;99.90;;;;;;4924877;28;20263;-55
2022/09/27 05:23:12;;;;;;;3.97;1.20;;;8.10;99.90;;;;;;4918242;28;20555;-54
2022/09/27 05:25:41;;;;;;;2.53;1.75;;;8.00;99.90;;;;;;4928423;28;20039;-53
2022/09/27 05:28:08;;;;;;;4.32;0.90;;;8.00;99.90;;;;;;4929917;28;20247;-54
2022/09/27 05:30:35;;;;;;;3.92;1.13;;;8.00;99.90;;;;;;4924627;28;20041;-55
2022/09/27 05:33:07;;;;;;;1.98;0.70;;;8.00;99.90;;;;;;4924609;28;20050;-54
2022/09/27 05:35:53;;;;;;;2.42;0.90;;;8.00;99.90;;;;;;4925881;28;20097;-55
2022/09/27 05:38:24;;;;;;;3.67;1.00;;;8.00;99.90;;;;;;4940646;28;20046;-52
2022/09/27 05:40:54;;;;;;;1.52;1.17;;;8.00;99.90;;;;;;4925417;28;20229;-54
2022/09/27 05:43:23;;;;;;;3.22;1.38;;;8.00;99.90;;;;;;4913860;28;20046;-55
2022/09/27 05:45:51;;;;;;;5.38;0.95;;;8.00;99.90;;;;;;4926105;28;20660;-53
2022/09/27 05:48:21;;;;;;;2.28;0.95;;;8.00;99.90;;;;;;4932323;28;20700;-54
2022/09/27 05:51:05;;;;;;;1.42;0.80;;;8.00;99.90;;;;;;4908581;28;20174;-52
2022/09/27 05:53:35;;;;;;;1.52;0.80;;;8.00;99.90;;;;;;4939643;28;20120;-54
2022/09/27 05:56:05;;;;;;;3.22;1.20;;;8.00;99.90;;;;;;4924962;28;20571;-52
2022/09/27 05:58:56;;;;;;;2.72;1.00;;;8.10;99.90;;;;;;4896091;28;20922;-54
2022/09/27 06:01:26;;;;;;;2.95;1.45;;;8.10;99.90;;;;;;4923335;28;20157;-53
2022/09/27 06:04:13;;;;;;;1.13;0.88;;;8.00;99.90;;;;;;4920115;28;20113;-54
2022/09/27 06:07:11;;;;;;;4.63;1.08;;;8.00;99.90;;;;;;4922129;28;20047;-53
2022/09/27 06:09:38;;;;;;;4.63;1.00;;;8.00;99.90;;;;;;4941851;28;20043;-54
2022/09/27 06:12:09;;;;;;;0.93;0.90;;;8.00;99.90;;;;;;4909055;28;20408;-54
2022/09/27 06:14:37;;;;;;;1.67;0.90;;;8.00;99.90;;;;;;4926823;28;20156;-54
2022/09/27 06:17:08;;;;;;;2.70;1.50;;;8.00;99.90;;;;;;4915523;28;20042;-54
2022/09/27 06:19:39;;;;;;;1.30;0.93;;;8.00;99.90;;;;;;4920453;28;20038;-55
2022/09/27 06:22:06;;;;;;;3.83;1.30;;;7.90;99.90;;;;;;4939980;28;20205;-54
2022/09/27 06:24:56;;;;;;;2.58;1.20;;;7.90;99.90;;;;;;4923833;28;20042;-54
2022/09/27 06:27:26;;;;;;;4.22;1.80;;;7.90;99.90;;;;;;4924728;28;20304;-55
2022/09/27 06:29:59;;;;;;;3.45;1.10;;;7.90;99.90;;;;;;4924393;28;20054;-55
2022/09/27 06:32:46;;;;;;;1.13;0.63;;;7.90;99.90;;;;;;4921120;28;20569;-55
2022/09/27 06:35:37;;;;;;;1.98;0.95;;;7.90;99.90;;;;;;4922432;28;20117;-55
2022/09/27 06:38:10;;;;;;;2.28;1.00;;;7.90;99.90;;;;;;4935991;28;20308;-54
2022/09/27 06:40:44;;;;;;;2.72;1.58;;;7.90;99.90;;;;;;4924220;28;20602;-54
2022/09/27 06:43:21;;;;;;;3.70;1.10;;;7.90;99.90;;;;;;4923314;28;20153;-54
2022/09/27 06:46:04;;;;;;;5.38;1.38;;;7.90;99.90;;;;;;4926736;28;20927;-55
2022/09/27 06:48:49;;;;;;;3.90;0.93;;;7.90;99.90;;;;;;4924473;28;20404;-56
2022/09/27 06:51:18;;;;;;;1.20;1.05;;;7.90;99.90;;;;;;4920103;28;20654;-55
2022/09/27 06:53:47;;;;;;;4.10;1.13;;;7.90;99.90;;;;;;4938131;28;20583;-55
2022/09/27 06:56:13;;;;;;;;;;;7.80;99.90;;;;;;4927075;28;20208;-54
2022/09/27 07:01:55;;;;;;;2.47;1.15;;;7.80;99.90;;;;;;4891703;28;20220;-54
2022/09/27 07:04:24;;;;;;;5.22;1.27;;;7.80;99.90;;;;;;4925976;28;20077;-54
2022/09/27 07:07:27;;;;;;;5.43;1.40;;;7.80;99.90;;;;;;4906892;28;20165;-53
2022/09/27 07:09:55;;;;;;;4.20;1.30;;;7.70;99.90;;;;;;4903748;28;20042;-54
2022/09/27 07:12:25;;;;;;;4.15;1.10;;;7.70;99.90;;;;;;4912004;28;20042;-54
2022/09/27 07:14:53;;;;;;;4.85;1.20;;;7.70;99.90;;;;;;4923372;28;20201;-54
2022/09/27 07:17:19;;;;;;;1.90;1.05;;;7.70;99.90;;;;;;4918577;28;20042;-54
2022/09/27 07:19:48;;;;;;;3.78;1.52;;;7.70;99.90;;;;;;4936427;28;20061;-54
2022/09/27 07:22:16;;;;;;;4.07;1.33;;;7.70;99.90;;;;;;4912671;28;20046;-51
2022/09/27 07:24:47;;;;;;;2.10;0.95;;;7.60;99.90;;;;;;4946113;28;20157;-53
2022/09/27 07:27:15;;;;;;;4.50;1.40;;;7.60;99.90;;;;;;4940383;28;20287;-52
2022/09/27 07:29:41;;;;;;;1.55;1.27;;;7.50;99.90;;;;;;4925698;28;20058;-53
2022/09/27 07:32:08;;;;;;;;;;;7.40;99.90;;;;;;4922052;28;20054;-51
2022/09/27 07:34:37;;;;;;;2.60;0.93;;;7.40;99.90;;;;;;4904295;28;20713;-53
2022/09/27 07:37:05;;;;;;;2.45;1.00;;;7.30;99.90;;;;;;4940624;28;20843;-52
2022/09/27 07:39:37;;;;;;;3.10;0.70;;;7.30;99.90;;;;;;4924669;28;20053;-53
2022/09/27 07:42:05;;;;;;;2.03;0.52;;;7.20;99.90;;;;;;4923024;28;20102;-52
2022/09/27 07:44:33;;;;;;;3.30;0.70;;;7.20;99.90;;;;;;4924858;28;20038;-53
2022/09/27 07:47:25;;;;;;;0.95;0.70;;;7.10;99.90;;;;;;4915384;28;20071;-56
2022/09/27 07:50:11;;;;;;;1.38;0.73;;;7.10;99.90;;;;;;4919787;28;20096;-53
2022/09/27 07:52:52;;;;;;;2.40;0.80;;;7.00;99.90;;;;;;4923973;28;20034;-52
2022/09/27 07:55:34;;;;;;;1.05;0.70;;;7.00;99.90;;;;;;4939892;28;20066;-51
2022/09/27 07:58:12;;;;;;;3.58;0.77;;;6.90;99.90;;;;;;4925605;28;20065;-53
2022/09/27 08:00:39;;;;;;;1.17;0.65;;;6.90;99.90;;;;;;4975593;28;20775;-49
2022/09/27 08:03:14;;;;;;;5.97;1.13;;;6.90;99.90;;;;;;4926795;28;20363;-51
2022/09/27 08:05:43;;;;;;;4.22;1.55;;;6.90;99.90;;;;;;4923596;28;20050;-53
2022/09/27 08:08:10;;;;;;;2.53;1.40;;;7.00;99.90;;;;;;4927343;28;20046;-54
2022/09/27 08:10:38;;;;;;;;;;;7.00;99.90;;;;;;4919840;28;20046;-54
2022/09/27 08:13:05;;;;;;;1.33;1.00;;;7.20;99.90;;;;;;4929349;28;20364;-52
2022/09/27 08:15:37;;;;;;;3.85;0.85;;;7.30;99.90;;;;;;4948933;28;20050;-51
2022/09/27 08:18:08;;;;;;;8.02;1.45;;;7.40;99.90;;;;;;4941309;28;20051;-55
2022/09/27 08:20:56;;;;;;;1.50;0.90;;;7.50;99.90;;;;;;4924870;28;20656;-54
2022/09/27 08:23:50;;;;;;;4.45;1.15;;;7.50;99.90;;;;;;4941883;28;20249;-52
2022/09/27 08:26:37;;;;;;;5.85;1.10;;;7.50;99.90;;;;;;4889730;28;20173;-52
2022/09/27 08:29:17;;;;;;;2.88;0.88;;;7.50;99.90;;;;;;4919526;28;20153;-53
2022/09/27 08:31:50;;;;;;;2.55;1.23;;;7.50;99.90;;;;;;4939211;28;20050;-53
2022/09/27 08:34:21;;;;;;;1.50;0.88;;;7.50;99.90;;;;;;4925097;28;20064;-52
2022/09/27 08:36:48;;;;;;;5.28;1.75;;;7.50;99.90;;;;;;4926376;28;20042;-51
2022/09/27 08:39:15;;;;;;;4.13;1.38;;;7.50;99.90;;;;;;4962087;28;20043;-50
2022/09/27 08:42:09;;;;;;;3.53;1.38;;;7.50;99.90;;;;;;4946004;28;20521;-53
2022/09/27 08:44:36;;;;;;;6.15;1.50;;;7.50;99.90;;;;;;4928311;28;20047;-52
2022/09/27 08:47:44;;;;;;;4.70;1.50;;;7.50;99.90;;;;;;4920112;28;20207;-52
2022/09/27 08:50:27;;;;;;;6.25;1.85;;;7.60;99.90;;;;;;4909956;28;20058;-54
2022/09/27 08:53:07;;;;;;;4.10;1.60;;;7.70;99.90;;;;;;4940712;28;20049;-55
2022/09/27 08:55:53;;;;;;;7.00;1.20;;;7.80;99.90;;;;;;4942696;28;20046;-52
2022/09/27 08:58:31;;;;;;;3.50;1.33;;;7.90;99.90;;;;;;4925671;28;20046;-53
2022/09/27 09:01:02;;;;;;;3.67;1.33;;;7.90;99.90;;;;;;4922218;28;20050;-53
2022/09/27 09:03:42;;;;;;;2.67;1.45;;;8.10;99.90;;;;;;4953960;28;20137;-54
2022/09/27 09:06:19;;;;;;;5.78;1.95;;;8.30;99.90;;;;;;4924696;28;20363;-52
2022/09/27 09:09:06;;;;;;;9.65;2.17;;;8.70;99.90;;;;;;4945638;28;20622;-53
2022/09/27 09:15:06;;;;;;;6.68;2.05;;;9.80;99.90;;;;;;4942777;28;20054;-53
2022/09/27 09:17:54;;;;;;;4.07;1.40;;;10.40;99.90;;;;;;4874893;28;20578;-53
2022/09/27 09:21:09;;;;;;;7.20;1.75;;;10.70;99.90;;;;;;4927540;28;20135;-54
2022/09/27 09:23:46;;;;;;;3.35;1.50;;;11.00;99.90;;;;;;4920224;28;20144;-53
2022/09/27 09:26:41;;;;;;;7.97;1.23;;;11.10;99.90;;;;;;4919379;28;20060;-54
2022/09/27 09:29:23;;;;;;;4.82;1.08;;;11.20;99.90;;;;;;4917861;28;20417;-53
2022/09/27 09:32:05;;;;;;;4.57;1.40;;;11.40;99.90;;;;;;4924863;28;20043;-56
2022/09/27 09:34:40;;;;;;;3.88;1.20;;;11.60;99.90;;;;;;4922384;28;20054;-52
2022/09/27 09:37:20;;;;;;;4.15;1.30;;;11.60;99.90;;;;;;4924810;28;20061;-53
2022/09/27 09:39:58;;;;;;;3.65;1.30;;;11.60;99.90;;;;;;4928167;28;20687;-54
2022/09/27 09:42:36;;;;;;;7.05;1.55;;;11.60;99.90;;;;;;4926447;28;20054;-53
2022/09/27 09:45:16;;;;;;;5.22;1.42;;;11.40;99.90;;;;;;4925486;28;20038;-52
2022/09/27 09:48:14;;;;;;;5.28;1.48;;;11.60;99.90;;;;;;4926974;28;20441;-51
2022/09/27 09:50:45;;;;;;;8.80;1.65;;;11.80;99.90;;;;;;4915088;28;20149;-51
2022/09/27 09:53:20;;;;;;;2.70;0.85;;;12.10;99.90;;;;;;4941545;28;20046;-52
2022/09/27 09:55:56;;;;;;;4.20;1.30;;;12.30;99.90;;;;;;4929976;28;20236;-53
2022/09/27 09:58:32;;;;;;;9.55;1.77;;;12.50;99.90;;;;;;4940383;28;20204;-54
2022/09/27 10:01:23;;;;;;;1.98;0.82;;;12.60;99.90;;;;;;4929319;28;20574;-52
2022/09/27 10:03:52;;;;;;;4.18;0.93;;;12.70;99.90;;;;;;4905344;28;20618;-52
2022/09/27 10:06:19;;;;;;;5.75;1.48;;;12.60;99.90;;;;;;4926330;28;20584;-53
2022/09/27 10:08:46;;;;;;;10.32;1.55;;;12.50;99.90;;;;;;4940065;28;20050;-53
2022/09/27 10:11:40;;;;;;;7.03;1.48;;;12.40;99.90;;;;;;4918103;28;20231;-53
2022/09/27 10:14:14;;;;;;;5.10;1.17;;;12.20;99.90;;;;;;4923673;28;20211;-54
2022/09/27 10:16:47;;;;;;;4.60;1.08;;;12.00;99.90;;;;;;4915925;28;20216;-54
2022/09/27 10:19:25;;;;;;;4.72;1.60;;;11.90;99.90;;;;;;4968896;28;20125;-55
2022/09/27 10:21:57;;;;;;;2.85;0.93;;;11.80;99.90;;;;;;4919154;28;20050;-54
2022/09/27 10:24:24;;;;;;;2.88;1.33;;;11.80;99.90;;;;;;4921525;28;20633;-53
2022/09/27 10:27:04;;;;;;;3.22;0.98;;;11.70;99.90;;;;;;4930668;28;20104;-53
2022/09/27 10:29:36;;;;;;;4.32;1.48;;;11.80;99.90;;;;;;4915249;28;20042;-54
2022/09/27 10:32:24;;;;;;;2.78;0.93;;;11.70;99.90;;;;;;4934192;28;20582;-53
2022/09/27 10:35:42;;;;;;;2.95;0.98;;;11.60;99.90;;;;;;4901901;28;20058;-54
2022/09/27 10:38:34;;;;;;;4.13;1.13;;;11.40;99.90;;;;;;4889699;28;20046;-53
2022/09/27 10:41:30;;;;;;;2.63;1.20;;;11.20;99.90;;;;;;4915318;28;20148;-56
2022/09/27 10:44:16;;;;;;;2.58;1.20;;;11.00;99.90;;;;;;4915366;28;20472;-53
2022/09/27 10:46:50;;;;;;;4.35;1.48;;;10.70;99.90;;;;;;4914155;28;20049;-52
2022/09/27 10:49:38;;;;;;;4.43;1.15;;;10.50;99.90;;;;;;4918677;28;20133;-57
2022/09/27 10:52:17;;;;;;;5.03;1.23;;;10.30;99.90;;;;;;4931362;28;20828;-51
2022/09/27 10:54:58;;;;;;;6.28;1.23;;;10.30;99.90;;;;;;4956247;28;20053;-55
2022/09/27 10:57:29;;;;;;;4.10;1.27;;;10.10;99.90;;;;;;4916967;28;20050;-55
2022/09/27 11:00:02;;;;;;;2.78;1.13;;;9.90;99.90;;;;;;4916380;28;20042;-56
2022/09/27 11:02:33;;;;;;;2.33;0.60;;;9.50;99.90;;;;;;4921903;28;20379;-58
2022/09/27 11:05:13;;;;;;;1.77;0.80;;;9.30;99.90;;;;;;4924245;28;20137;-54
2022/09/27 11:07:53;;;;;;;0.75;0.47;;;9.00;99.90;;;;;;4933429;28;20046;-54
2022/09/27 11:10:32;;;;;;;2.60;0.75;;;8.80;99.90;;;;;;4947508;28;20409;-54
2022/09/27 11:13:11;;;;;;;1.52;0.75;;;8.60;99.90;;;;;;4920727;28;20042;-54
2022/09/27 11:15:46;;;;;;;5.38;0.95;;;8.50;99.90;;;;;;4921776;28;20047;-54
2022/09/27 11:18:23;;;;;;;5.40;1.23;;;8.30;99.90;;;;;;4926929;28;20058;-54
2022/09/27 11:20:54;;;;;;;;;;;8.20;99.90;;;;;;4921685;28;20248;-53
2022/09/27 11:23:59;;;;;;;4.57;0.80;;;8.20;99.90;;;;;;4923426;28;19930;-54
2022/09/27 11:26:47;;;;;;;1.05;0.77;;;8.20;99.90;;;;;;4916787;28;20061;-53
2022/09/27 11:29:46;;;;;;;0.45;0.45;;;8.40;99.90;;;;;;4919462;28;20081;-54
2022/09/27 11:32:22;;;;;;;2.90;0.88;;;8.70;99.90;;;;;;4916161;28;20581;-53
2022/09/27 11:35:22;;;;;;;2.75;1.00;;;9.00;99.90;;;;;;4918016;28;20297;-55
2022/09/27 11:38:09;;;;;;;1.83;0.80;;;9.20;99.90;;;;;;4946982;28;20316;-55
2022/09/27 11:40:43;;;;;;;3.05;0.93;;;9.20;99.90;;;;;;4926041;28;20146;-57
2022/09/27 11:43:47;;;;;;;5.53;0.85;;;9.20;99.90;;;;;;4921279;28;20808;-51
2022/09/27 11:46:29;;;;;;;1.83;0.93;;;9.20;99.90;;;;;;4922180;28;20042;-49
2022/09/27 11:49:36;;;;;;;1.45;0.98;;;9.10;99.90;;;;;;4929135;28;20282;-52
2022/09/27 11:52:40;;;;;;;2.22;0.90;;;9.10;99.90;;;;;;4927093;28;20148;-51
2022/09/27 11:55:24;;;;;;;2.05;0.80;;;9.10;99.90;;;;;;4927371;28;20051;-52
2022/09/27 11:58:17;;;;;;;5.50;2.53;;;9.00;99.90;;;;;;4915086;28;20059;-53
2022/09/27 12:01:03;;;;;;;1.90;1.00;;;9.10;99.90;;;;;;4925626;28;20353;-53
2022/09/27 12:03:39;;;;;;;2.65;1.00;;;9.00;99.90;;;;;;4949549;28;20137;-53
2022/09/27 12:06:17;;;;;;;8.10;2.85;;;9.10;99.90;;;;;;4920440;28;20043;-55
2022/09/27 12:08:58;;;;;;;3.97;2.35;;;9.20;99.90;;;;;;4926615;28;20192;-53
2022/09/27 12:11:43;;;;;;;2.33;1.05;;;9.20;99.90;;;;;;4924061;28;20038;-55
2022/09/27 12:14:53;;;;;;;1.55;0.70;;;9.20;99.90;;;;;;4930055;28;20867;-53
2022/09/27 12:17:30;;;;;;;2.38;0.80;;;9.30;99.90;;;;;;4892181;28;20046;-53
2022/09/27 12:19:59;;;;;;;1.70;1.35;;;9.20;99.90;;;;;;4944636;28;20051;-52
2022/09/27 12:22:57;;;;;;;3.45;1.15;;;9.20;99.90;;;;;;4946694;28;20038;-52
2022/09/27 12:25:50;;;;;;;4.55;1.83;;;9.20;99.90;;;;;;4927651;28;20501;-51
2022/09/27 12:28:35;;;;;;;3.42;1.23;;;9.20;99.90;;;;;;4925780;28;20603;-52
2022/09/27 12:31:32;;;;;;;6.43;0.70;;;9.30;99.90;;;;;;4913841;28;20204;-52
2022/09/27 12:34:37;;;;;;;2.72;0.90;;;9.60;99.90;;;;;;4926280;28;20224;-61
2022/09/27 12:37:10;;;;;;;2.22;1.17;;;10.00;99.90;;;;;;4928595;28;20319;-54
2022/09/27 12:40:02;;;;;;;1.88;0.85;;;10.50;99.90;;;;;;4942796;28;20369;-53
2022/09/27 12:42:59;;;;;;;2.38;1.00;;;10.90;99.90;;;;;;4925384;28;20062;-54
2022/09/27 12:45:43;;;;;;;;;;;11.30;99.90;;;;;;4927965;28;20601;-54
2022/09/27 12:48:13;;;;;;;1.88;0.60;;;11.70;99.90;;;;;;4939818;28;20431;-51
2022/09/27 12:50:52;;;;;;;1.35;0.93;;;11.90;99.90;;;;;;4915481;28;20422;-55
2022/09/27 12:53:32;;;;;;;4.30;1.58;;;11.90;99.90;;;;;;4926276;28;20149;-54
2022/09/27 12:56:10;;;;;;;2.15;1.08;;;11.80;99.90;;;;;;4915470;28;20256;-53
2022/09/27 12:59:01;;;;;;;4.45;0.90;;;11.70;99.90;;;;;;4938941;28;20049;-54
2022/09/27 13:01:51;;;;;;;3.20;1.00;;;11.40;99.90;;;;;;4937239;28;20069;-53
2022/09/27 13:04:18;;;;;;;4.40;1.08;;;11.20;99.90;;;;;;4929537;28;20050;-54
2022/09/27 13:06:57;;;;;;;;;;;11.20;99.90;;;;;;4926344;28;20559;-53
2022/09/27 13:09:51;;;;;;;4.05;0.98;;;11.40;99.90;;;;;;4924586;28;20158;-54
2022/09/27 13:12:28;;;;;;;2.67;1.17;;;11.40;99.90;;;;;;4940940;28;20057;-55
2022/09/27 13:15:03;;;;;;;3.55;0.85;;;11.40;99.90;;;;;;4928104;28;20069;-53
2022/09/27 13:17:58;;;;;;;2.45;1.20;;;11.40;99.90;;;;;;4916270;28;20055;-54
2022/09/27 13:20:34;;;;;;;2.90;1.00;;;11.50;99.90;;;;;;4925012;28;20896;-55
2022/09/27 13:23:17;;;;;;;0.93;0.80;;;11.40;99.90;;;;;;4918376;28;20061;-54
2022/09/27 13:25:52;;;;;;;2.88;0.95;;;11.30;99.90;;;;;;4922253;28;20172;-54
2022/09/27 13:28:47;;;;;;;2.60;0.70;;;11.20;99.90;;;;;;4917253;28;20575;-53
2022/09/27 13:31:52;;;;;;;1.75;0.60;;;11.10;99.90;;;;;;4927647;28;20046;-54
2022/09/27 13:34:43;;;;;;;6.32;0.73;;;11.00;99.90;;;;;;4920271;28;20042;-54
2022/09/27 13:37:44;;;;;;;1.98;0.85;;;11.00;99.90;;;;;;4911936;28;20141;-55
2022/09/27 13:40:15;;;;;;;1.50;0.75;;;11.10;99.90;;;;;;4919711;28;20038;-55
2022/09/27 13:43:11;;;;;;;2.55;0.93;;;11.30;99.90;;;;;;4914953;28;20657;-54
2022/09/27 13:45:54;;;;;;;2.38;0.88;;;11.40;99.90;;;;;;4941196;28;20606;-52
2022/09/27 13:48:26;;;;;;;1.65;0.80;;;11.50;99.90;;;;;;4918810;28;20745;-53
2022/09/27 13:51:01;;;;;;;0.95;0.75;;;11.70;99.90;;;;;;4923242;28;20050;-55
2022/09/27 13:53:28;;;;;;;2.15;0.77;;;12.10;99.90;;;;;;4936418;28;20042;-55
2022/09/27 13:55:56;;;;;;;2.90;0.85;;;12.30;99.90;;;;;;4927771;28;20219;-57
2022/09/27 13:59:23;;;;;;;3.55;1.02;;;12.30;99.90;;;;;;4937679;28;20841;-56
2022/09/27 14:02:28;;;;;;;1.08;0.63;;;12.30;99.90;;;;;;4922547;28;20630;-53
2022/09/27 14:04:57;;;;;;;1.77;0.68;;;12.20;99.90;;;;;;4918965;28;20058;-55